createdAt,value
2023-05-02T00:01:33.889Z,99298.69
2023-05-02T00:04:03.809Z,99295.53
2023-05-02T00:06:34.054Z,99299.31
2023-05-02T00:09:06.547Z,99310.19
2023-05-02T00:11:36.290Z,99316.72
2023-05-02T00:14:05.993Z,99327.66
2023-05-02T00:16:35.745Z,99328.91
2023-05-02T00:19:05.495Z,99343.25
2023-05-02T00:21:35.956Z,99348.63
2023-05-02T00:24:09.087Z,99360.13
2023-05-02T00:26:38.824Z,99363.63
2023-05-02T00:29:08.976Z,99370.59
2023-05-02T00:31:38.711Z,99379.34
2023-05-02T00:34:08.440Z,99388.97
2023-05-02T00:36:38.124Z,99406.47
2023-05-02T00:39:11.008Z,99418.63
2023-05-02T00:41:40.734Z,99425.63
2023-05-02T00:44:10.424Z,99444.81
2023-05-02T00:46:40.672Z,99455.28
2023-05-02T00:49:10.417Z,99478.19
2023-05-02T00:51:40.097Z,99491.16
2023-05-02T00:54:12.365Z,99493.72
2023-05-02T00:56:42.324Z,99500.72
2023-05-02T00:59:13.292Z,99505.88
2023-05-02T01:01:53.720Z,99508.63
2023-05-02T01:04:34.907Z,99518.97
2023-05-02T01:07:14.089Z,99524.16
2023-05-02T01:09:56.541Z,99528.59
2023-05-02T01:12:30.833Z,99531.22
2023-05-02T01:15:01.928Z,99530.59
2023-05-02T01:17:35.212Z,99549.13
2023-05-02T01:20:08.020Z,99549.44
2023-05-02T01:22:38.621Z,99548.59
2023-05-02T01:25:20.366Z,99533.81
2023-05-02T01:27:57.577Z,99537.47
2023-05-02T01:30:32.560Z,99544.53
2023-05-02T01:33:03.293Z,99550.66
2023-05-02T01:35:33.962Z,99562.16
2023-05-02T01:38:04.347Z,99571.88
2023-05-02T01:40:34.839Z,99586.75
2023-05-02T01:43:05.841Z,99586.00
2023-05-02T01:45:39.364Z,99590.34
2023-05-02T01:48:09.730Z,99592.97
2023-05-02T01:50:40.549Z,99594.88
2023-05-02T01:53:13.877Z,99594.97
2023-05-02T01:55:45.251Z,99596.81
2023-05-02T01:58:17.240Z,99595.97
2023-05-02T02:00:50.370Z,99580.44
2023-05-02T02:03:21.133Z,99583.25
2023-05-02T02:05:51.727Z,99579.03
2023-05-02T02:08:21.554Z,99572.06
2023-05-02T02:10:59.691Z,99561.50
2023-05-02T02:13:36.220Z,99553.59
2023-05-02T02:16:10.408Z,99547.38
2023-05-02T02:18:41.836Z,99547.47
2023-05-02T02:21:13.517Z,99544.81
2023-05-02T02:23:44.349Z,99548.31
2023-05-02T02:26:15.563Z,99554.63
2023-05-02T02:28:45.690Z,99552.84
2023-05-02T02:31:17.990Z,99547.47
2023-05-02T02:33:47.877Z,99552.84
2023-05-02T02:36:30.439Z,99546.63
2023-05-02T02:39:07.825Z,99549.25
2023-05-02T02:41:42.761Z,99546.72
2023-05-02T02:44:20.723Z,99553.59
2023-05-02T02:47:03.847Z,99539.44
2023-05-02T02:49:39.219Z,99545.56
2023-05-02T02:52:13.774Z,99546.31
2023-05-02T02:54:48.034Z,99541.16
2023-05-02T02:57:21.284Z,99537.75
2023-05-02T02:59:55.839Z,99539.44
2023-05-02T03:02:32.243Z,99538.50
2023-05-02T03:05:03.647Z,99528.06
2023-05-02T03:07:33.561Z,99533.22
2023-05-02T03:10:07.084Z,99522.56
2023-05-02T03:12:40.169Z,99520.78
2023-05-02T03:15:21.381Z,99512.81
2023-05-02T03:17:53.740Z,99503.09
2023-05-02T03:20:24.104Z,99504.88
2023-05-02T03:22:53.859Z,99509.31
2023-05-02T03:25:23.514Z,99502.31
2023-05-02T03:27:54.280Z,99493.50
2023-05-02T03:30:24.075Z,99488.28
2023-05-02T03:32:57.267Z,99481.41
2023-05-02T03:35:27.383Z,99458.63
2023-05-02T03:37:57.067Z,99455.97
2023-05-02T03:40:26.694Z,99454.28
2023-05-02T03:42:57.864Z,99441.22
2023-05-02T03:45:34.215Z,99441.09
2023-05-02T03:48:07.114Z,99418.31
2023-05-02T03:50:37.728Z,99161.50
2023-05-02T03:53:08.076Z,99226.59
2023-05-02T03:55:46.668Z,99251.19
2023-05-02T03:58:25.423Z,99278.28
2023-05-02T04:00:55.820Z,99293.19
2023-05-02T04:03:30.097Z,99310.06
2023-05-02T04:06:01.825Z,99325.78
2023-05-02T04:08:31.663Z,99337.19
2023-05-02T04:11:04.825Z,99350.25
2023-05-02T04:13:34.682Z,99360.06
2023-05-02T04:16:04.860Z,99375.06
2023-05-02T04:18:40.522Z,99376.84
2023-05-02T04:21:11.320Z,99376.84
2023-05-02T04:23:42.382Z,99391.00
2023-05-02T04:26:12.141Z,99401.72
2023-05-02T04:29:00.973Z,99393.72
2023-05-02T04:31:30.809Z,99406.81
2023-05-02T04:34:04.465Z,99398.91
2023-05-02T04:36:40.260Z,99420.75
2023-05-02T04:39:12.613Z,99425.19
2023-05-02T04:41:47.831Z,99440.16
2023-05-02T04:44:18.421Z,99456.09
2023-05-02T04:46:48.792Z,99462.59
2023-05-02T04:49:21.114Z,99482.00
2023-05-02T04:51:52.152Z,99495.19
2023-05-02T04:54:22.845Z,99516.44
2023-05-02T04:56:52.624Z,99536.91
2023-05-02T04:59:23.807Z,99565.16
2023-05-02T05:01:53.962Z,99595.19
2023-05-02T05:04:27.776Z,99604.13
2023-05-02T05:06:57.716Z,99627.22
2023-05-02T05:09:30.109Z,99639.47
2023-05-02T05:11:59.909Z,99643.13
2023-05-02T05:14:31.511Z,99651.03
2023-05-02T05:17:01.564Z,99645.69
2023-05-02T05:19:34.758Z,99655.19
2023-05-02T05:22:04.897Z,99671.75
2023-05-02T05:24:35.290Z,99669.03
2023-05-02T05:27:06.291Z,99691.75
2023-05-02T05:29:36.299Z,99720.75
2023-05-02T05:32:06.387Z,99736.59
2023-05-02T05:34:41.132Z,99762.03
2023-05-02T05:37:10.913Z,99783.13
2023-05-02T05:39:40.808Z,99805.06
2023-05-02T05:42:10.779Z,99846.41
2023-05-02T05:44:41.801Z,99834.00
2023-05-02T05:47:12.953Z,99856.97
2023-05-02T05:49:45.285Z,99892.28
2023-05-02T05:52:15.022Z,99923.31
2023-05-02T05:54:44.849Z,99926.19
2023-05-02T05:57:14.577Z,99922.88
2023-05-02T05:59:45.797Z,99912.44
2023-05-02T06:02:16.994Z,99875.59
2023-05-02T06:04:49.669Z,99845.75
2023-05-02T06:07:22.756Z,99846.41
2023-05-02T06:09:52.468Z,99833.16
2023-05-02T06:12:22.135Z,99826.09
2023-05-02T06:14:52.794Z,99810.97
2023-05-02T06:17:23.476Z,99804.75
2023-05-02T06:19:55.909Z,99812.56
2023-05-02T06:22:25.612Z,99801.06
2023-05-02T06:24:56.262Z,99791.38
2023-05-02T06:27:26.039Z,99782.81
2023-05-02T06:29:55.983Z,99776.69
2023-05-02T06:32:26.466Z,99753.59
2023-05-02T06:34:58.825Z,99736.69
2023-05-02T06:37:28.807Z,99733.09
2023-05-02T06:39:58.708Z,99713.69
2023-05-02T06:42:28.660Z,99681.09
2023-05-02T06:44:58.792Z,99652.00
2023-05-02T06:47:29.091Z,99632.50
2023-05-02T06:50:01.850Z,99598.16
2023-05-02T06:52:31.860Z,99559.13
2023-05-02T06:55:01.454Z,99553.59
2023-05-02T06:57:31.248Z,99529.47
2023-05-02T07:00:01.524Z,99508.16
2023-05-02T07:02:31.610Z,99499.03
2023-05-02T07:05:03.912Z,99472.66
2023-05-02T07:07:33.700Z,99465.56
2023-05-02T07:10:04.234Z,99446.25
2023-05-02T07:12:34.052Z,99424.00
2023-05-02T07:15:03.830Z,99404.50
2023-05-02T07:17:33.641Z,99384.97
2023-05-02T07:20:06.392Z,99385.09
2023-05-02T07:22:36.131Z,99366.41
2023-05-02T07:25:06.774Z,99347.94
2023-05-02T07:27:36.586Z,99333.16
2023-05-02T07:30:07.195Z,99304.97
2023-05-02T07:32:37.230Z,99305.16
2023-05-02T07:35:10.271Z,99305.16
2023-05-02T07:37:40.669Z,99329.00
2023-05-02T07:40:12.229Z,99354.53
2023-05-02T07:42:42.251Z,99381.13
2023-05-02T07:45:12.770Z,99419.22
2023-05-02T07:47:42.468Z,99441.09
2023-05-02T07:50:14.995Z,99463.53
2023-05-02T07:52:44.944Z,99490.94
2023-05-02T07:55:15.320Z,99520.22
2023-05-02T07:57:45.120Z,99538.97
2023-05-02T08:00:16.430Z,99560.34
2023-05-02T08:02:46.453Z,99593.88
2023-05-02T08:05:19.030Z,99608.91
2023-05-02T08:07:48.973Z,99631.91
2023-05-02T08:10:18.709Z,99660.31
2023-05-02T08:12:48.426Z,99675.47
2023-05-02T08:15:18.158Z,99694.03
2023-05-02T08:17:47.973Z,99709.00
2023-05-02T08:20:20.417Z,99722.41
2023-05-02T08:22:50.577Z,99734.75
2023-05-02T08:25:20.307Z,99747.09
2023-05-02T08:27:50.026Z,99754.91
2023-05-02T08:30:19.863Z,99756.69
2023-05-02T08:32:49.564Z,99753.03
2023-05-02T08:35:21.920Z,99759.00
2023-05-02T08:37:51.728Z,99759.59
2023-05-02T08:40:33.610Z,99755.06
2023-05-02T08:43:10.937Z,99750.56
2023-05-02T08:45:43.836Z,99742.97
2023-05-02T08:48:17.041Z,99746.38
2023-05-02T08:50:49.775Z,99738.59
2023-05-02T08:53:21.203Z,99752.97
2023-05-02T08:55:51.668Z,99759.38
2023-05-02T08:58:21.341Z,99771.66
2023-05-02T09:00:52.270Z,99764.25
2023-05-02T09:03:29.698Z,99780.50
2023-05-02T09:06:07.643Z,99791.47
2023-05-02T09:08:37.690Z,99812.50
2023-05-02T09:11:08.109Z,99828.81
2023-05-02T09:13:39.055Z,99843.00
2023-05-02T09:16:10.246Z,99861.00
2023-05-02T09:18:43.350Z,99883.41
2023-05-02T09:21:20.499Z,99889.59
2023-05-02T09:23:52.217Z,99903.78
2023-05-02T09:26:23.532Z,99907.44
2023-05-02T09:28:54.615Z,99925.69
2023-05-02T09:31:49.930Z,99932.66
2023-05-02T09:34:17.307Z,99935.59
2023-05-02T09:36:51.452Z,99951.75
2023-05-02T09:39:25.535Z,99946.38
2023-05-02T09:41:55.800Z,99951.56
2023-05-02T09:44:27.571Z,99939.16
2023-05-02T09:46:59.152Z,99941.75
2023-05-02T09:49:45.034Z,99942.53
2023-05-02T09:52:20.165Z,99943.06
2023-05-02T09:54:51.008Z,99937.78
2023-05-02T09:57:21.107Z,99940.44
2023-05-02T09:59:57.911Z,99928.13
2023-05-02T10:02:28.225Z,99919.09
2023-05-02T10:05:00.395Z,99901.28
2023-05-02T10:07:33.489Z,99888.56
2023-05-02T10:10:05.136Z,99887.41
2023-05-02T10:12:36.163Z,99868.47
2023-05-02T10:15:07.508Z,99871.44
2023-05-02T10:17:43.912Z,99868.25
2023-05-02T10:20:17.223Z,99874.13
2023-05-02T10:22:50.862Z,99867.19
2023-05-02T10:25:20.646Z,99867.59
2023-05-02T10:27:50.882Z,99867.00
2023-05-02T10:30:20.583Z,99861.72
2023-05-02T10:32:51.265Z,99859.91
2023-05-02T10:35:21.250Z,99864.97
2023-05-02T10:37:53.704Z,99877.53
2023-05-02T10:40:23.496Z,99877.56
2023-05-02T10:42:53.963Z,99891.78
2023-05-02T10:45:37.358Z,99888.56
2023-05-02T10:48:19.064Z,99890.22
2023-05-02T10:50:51.388Z,99900.06
2023-05-02T10:53:37.368Z,99905.00
2023-05-02T10:56:18.290Z,99917.53
2023-05-02T10:58:49.027Z,99935.75
2023-05-02T11:01:40.549Z,99966.22
2023-05-02T11:04:12.150Z,99979.34
2023-05-02T11:07:11.791Z,99993.81
2023-05-02T11:09:44.071Z,99997.31
2023-05-02T11:12:13.805Z,99995.63
2023-05-02T11:14:52.770Z,100008.91
2023-05-02T11:17:22.874Z,100029.41
2023-05-02T11:20:25.149Z,100035.53
2023-05-02T11:22:55.546Z,100038.94
2023-05-02T11:25:52.071Z,100035.44
2023-05-02T11:28:43.370Z,100037.22
2023-05-02T11:31:48.168Z,100061.16
2023-05-02T11:34:17.984Z,100061.09
2023-05-02T11:36:47.658Z,100054.50
2023-05-02T11:39:23.151Z,100047.63
2023-05-02T11:41:55.446Z,100075.84
2023-05-02T11:44:25.231Z,100111.78
2023-05-02T11:46:55.944Z,100136.13
2023-05-02T11:49:25.839Z,100132.47
2023-05-02T11:51:55.592Z,100148.66
2023-05-02T11:54:25.375Z,100133.13
2023-05-02T11:56:57.764Z,100160.63
2023-05-02T11:59:27.989Z,100175.28
2023-05-02T12:01:58.262Z,100205.94
2023-05-02T12:04:28.346Z,100200.34
2023-05-02T12:06:58.565Z,100229.78
2023-05-02T12:09:28.248Z,100314.03
2023-05-02T12:12:02.256Z,100342.53
2023-05-02T12:14:33.617Z,100351.81
2023-05-02T12:17:03.975Z,100410.28
2023-05-02T12:19:33.801Z,100445.97
2023-05-02T12:22:03.568Z,100403.09
2023-05-02T12:24:33.849Z,100395.56
2023-05-02T12:27:16.275Z,100428.78
2023-05-02T12:29:47.385Z,100470.03
2023-05-02T12:32:18.014Z,100500.00
2023-05-02T12:34:49.389Z,100505.13
2023-05-02T12:37:25.597Z,100548.75
2023-05-02T12:39:55.998Z,100522.44
2023-05-02T12:42:29.020Z,100549.44
2023-05-02T12:44:58.686Z,100618.72
2023-05-02T12:47:28.645Z,100663.44
2023-05-02T12:50:00.773Z,100689.66
2023-05-02T12:52:57.615Z,100726.00
2023-05-02T12:55:29.470Z,100726.38
2023-05-02T12:58:05.828Z,100706.88
2023-05-02T13:00:37.719Z,100750.84
2023-05-02T13:03:08.116Z,100775.63
2023-05-02T13:05:38.140Z,100815.81
2023-05-02T13:08:08.786Z,100843.38
2023-05-02T13:10:38.404Z,100846.75
2023-05-02T13:13:10.695Z,100852.38
2023-05-02T13:15:40.361Z,100864.28
2023-05-02T13:18:10.195Z,100925.75
2023-05-02T13:20:40.075Z,100965.81
2023-05-02T13:23:09.808Z,100975.69
2023-05-02T13:25:39.709Z,100934.91
2023-05-02T13:28:12.020Z,100971.44
2023-05-02T13:30:41.901Z,101027.13
2023-05-02T13:33:11.646Z,101077.03
2023-05-02T13:35:41.527Z,101094.28
2023-05-02T13:38:11.182Z,101103.03
2023-05-02T13:40:40.867Z,101046.34
2023-05-02T13:43:13.124Z,101065.06
2023-05-02T13:45:42.868Z,101055.41
2023-05-02T13:48:12.548Z,101046.81
2023-05-02T13:50:42.253Z,101071.06
2023-05-02T13:53:11.903Z,101049.06
2023-05-02T13:55:41.894Z,101046.50
2023-05-02T13:58:14.184Z,101047.66
2023-05-02T14:00:43.944Z,101063.78
2023-05-02T14:03:14.028Z,101069.31
2023-05-02T14:05:43.928Z,101078.56
2023-05-02T14:08:18.445Z,101066.88
2023-05-02T14:10:48.320Z,101055.97
2023-05-02T14:13:20.591Z,101090.00
2023-05-02T14:15:50.397Z,101114.41
2023-05-02T14:18:20.118Z,101125.25
2023-05-02T14:20:49.899Z,101090.56
2023-05-02T14:23:19.586Z,101097.97
2023-05-02T14:25:49.314Z,101126.09
2023-05-02T14:28:21.534Z,101116.59
2023-05-02T14:30:51.536Z,101072.72
2023-05-02T14:33:21.220Z,101058.09
2023-05-02T14:35:51.676Z,101049.50
2023-05-02T14:38:21.720Z,101065.22
2023-05-02T14:40:51.489Z,101121.13
2023-05-02T14:43:24.070Z,101141.25
2023-05-02T14:45:53.838Z,101131.34
2023-05-02T14:48:23.488Z,101152.78
2023-05-02T14:50:53.845Z,101153.56
2023-05-02T14:53:23.749Z,101193.56
2023-05-02T14:55:53.444Z,101178.66
2023-05-02T14:58:25.749Z,101155.81
2023-05-02T15:00:55.637Z,101180.59
2023-05-02T15:03:25.543Z,101180.53
2023-05-02T15:05:55.380Z,101202.78
2023-05-02T15:08:25.326Z,101206.06
2023-05-02T15:10:55.966Z,101222.00
2023-05-02T15:13:28.256Z,101234.13
2023-05-02T15:15:58.035Z,101246.22
2023-05-02T15:18:27.737Z,101254.13
2023-05-02T15:20:57.374Z,101267.22
2023-05-02T15:23:27.120Z,101273.31
2023-05-02T15:25:56.802Z,101272.84
2023-05-02T15:28:29.032Z,101274.88
2023-05-02T15:30:58.752Z,101273.53
2023-05-02T15:33:28.833Z,101246.25
2023-05-02T15:35:59.788Z,101276.13
2023-05-02T15:38:29.584Z,101313.28
2023-05-02T15:41:00.077Z,101330.00
2023-05-02T15:43:32.427Z,101364.19
2023-05-02T15:46:03.106Z,101378.84
2023-05-02T15:48:35.003Z,101371.50
2023-05-02T15:51:05.516Z,101369.28
2023-05-02T15:53:39.413Z,101403.00
2023-05-02T15:56:10.932Z,101395.97
2023-05-02T15:58:43.442Z,101391.13
2023-05-02T16:01:13.222Z,101422.13
2023-05-02T16:03:43.040Z,101435.84
2023-05-02T16:06:12.859Z,101439.03
2023-05-02T16:08:42.590Z,101424.75
2023-05-02T16:11:12.269Z,101428.88
2023-05-02T16:13:44.834Z,101427.16
2023-05-02T16:16:14.747Z,101436.94
2023-05-02T16:18:44.585Z,101458.44
2023-05-02T16:21:14.621Z,101469.47
2023-05-02T16:23:44.316Z,101467.03
2023-05-02T16:26:14.134Z,101467.56
2023-05-02T16:28:46.376Z,101485.97
2023-05-02T16:31:16.209Z,101485.13
2023-05-02T16:33:45.942Z,101480.72
2023-05-02T16:36:15.592Z,101495.38
2023-05-02T16:38:45.213Z,101507.53
2023-05-02T16:41:14.845Z,101515.19
2023-05-02T16:43:47.135Z,101515.13
2023-05-02T16:46:17.116Z,101525.03
2023-05-02T16:48:47.077Z,101532.97
2023-05-02T16:51:16.765Z,101536.75
2023-05-02T16:53:46.480Z,101524.41
2023-05-02T16:56:16.333Z,101530.75
2023-05-02T16:58:48.597Z,101522.75
2023-05-02T17:01:18.557Z,101507.69
2023-05-02T17:03:48.272Z,101509.88
2023-05-02T17:06:18.043Z,101524.09
2023-05-02T17:08:47.701Z,101508.91
2023-05-02T17:11:17.579Z,101506.13
2023-05-02T17:13:50.026Z,101506.50
2023-05-02T17:16:20.690Z,101510.88
2023-05-02T17:18:50.911Z,101508.06
2023-05-02T17:21:20.613Z,101502.91
2023-05-02T17:24:03.257Z,101503.59
2023-05-02T17:26:33.164Z,101506.50
2023-05-02T17:32:08.385Z,101500.41
2023-05-02T17:34:38.973Z,101512.44
2023-05-02T17:37:08.627Z,101512.13
2023-05-02T17:39:38.350Z,101527.53
2023-05-02T17:42:08.164Z,101527.81
2023-05-02T17:44:40.455Z,101531.34
2023-05-02T17:47:10.169Z,101540.34
2023-05-02T17:49:39.849Z,101550.53
2023-05-02T17:52:09.503Z,101556.97
2023-05-02T17:54:39.182Z,101572.38
2023-05-02T17:57:10.160Z,101567.63
2023-05-02T17:59:44.417Z,101588.47
2023-05-02T18:02:15.775Z,101585.44
2023-05-02T18:04:46.409Z,101597.19
2023-05-02T18:07:16.180Z,101607.81
2023-05-02T18:09:46.139Z,101624.06
2023-05-02T18:12:15.819Z,101616.75
2023-05-02T18:14:49.160Z,101616.38
2023-05-02T18:17:20.636Z,101603.34
2023-05-02T18:19:51.002Z,101606.06
2023-05-02T18:22:21.835Z,101577.03
2023-05-02T18:24:53.544Z,101567.16
2023-05-02T18:27:23.457Z,101544.69
2023-05-02T18:29:55.890Z,101539.75
2023-05-02T18:32:26.214Z,101530.75
2023-05-02T18:34:56.636Z,101543.66
2023-05-02T18:37:31.261Z,101526.53
2023-05-02T18:40:01.001Z,101522.63
2023-05-02T18:42:30.687Z,101518.66
2023-05-02T18:45:03.174Z,101499.78
2023-05-02T18:47:33.819Z,101499.22
2023-05-02T18:50:05.007Z,101476.75
2023-05-02T18:52:34.698Z,101465.69
2023-05-02T18:55:05.185Z,101446.59
2023-05-02T18:57:35.267Z,101412.47
2023-05-02T19:00:09.255Z,101367.81
2023-05-02T19:02:39.232Z,101312.63
2023-05-02T19:05:09.388Z,101254.69
2023-05-02T19:07:39.285Z,101258.63
2023-05-02T19:10:11.199Z,101236.00
2023-05-02T19:12:41.909Z,101194.03
2023-05-02T19:15:14.956Z,101198.81
2023-05-02T19:17:45.259Z,101183.47
2023-05-02T19:20:15.493Z,101167.91
2023-05-02T19:22:46.226Z,101188.59
2023-05-02T19:25:16.158Z,101163.31
2023-05-02T19:27:47.849Z,101123.28
2023-05-02T19:30:21.726Z,101091.06
2023-05-02T19:32:51.856Z,101084.47
2023-05-02T19:35:22.058Z,101071.41
2023-05-02T19:37:51.713Z,101070.84
2023-05-02T19:40:21.566Z,101082.50
2023-05-02T19:42:51.248Z,101067.13
2023-05-02T19:45:23.641Z,101066.53
2023-05-02T19:47:53.756Z,101053.63
2023-05-02T19:50:23.546Z,101049.53
2023-05-02T19:52:53.336Z,101056.84
2023-05-02T19:55:23.282Z,101040.34
2023-05-02T19:57:52.931Z,101017.75
2023-05-02T20:00:25.599Z,101014.53
2023-05-02T20:02:55.485Z,100984.88
2023-05-02T20:05:25.287Z,100964.97
2023-05-02T20:07:54.931Z,100941.44
2023-05-02T20:10:24.574Z,100905.81
2023-05-02T20:12:54.241Z,100904.31
2023-05-02T20:15:26.853Z,100887.00
2023-05-02T20:17:58.376Z,100850.22
2023-05-02T20:20:28.197Z,100821.50
2023-05-02T20:22:58.304Z,100829.69
2023-05-02T20:25:28.770Z,100821.19
2023-05-02T20:27:58.440Z,100817.88
2023-05-02T20:30:30.799Z,100813.63
2023-05-02T20:33:10.553Z,100807.69
2023-05-02T20:35:45.066Z,100799.00
2023-05-02T20:38:17.815Z,100791.31
2023-05-02T20:40:47.753Z,100787.09
2023-05-02T20:43:18.958Z,100753.94
2023-05-02T20:45:51.735Z,100741.91
2023-05-02T20:48:21.428Z,100722.00
2023-05-02T20:50:57.591Z,100707.28
2023-05-02T20:53:27.313Z,100691.72
2023-05-02T20:55:56.978Z,100681.53
2023-05-02T20:58:27.004Z,100660.69
2023-05-02T21:00:59.247Z,100644.22
2023-05-02T21:03:30.498Z,100646.22
2023-05-02T21:06:01.225Z,100630.69
2023-05-02T21:08:31.209Z,100623.84
2023-05-02T21:11:01.230Z,100623.13
2023-05-02T21:13:30.966Z,100618.09
2023-05-02T21:16:03.405Z,100593.66
2023-05-02T21:18:33.070Z,100578.09
2023-05-02T21:21:02.736Z,100574.00
2023-05-02T21:23:32.448Z,100575.00
2023-05-02T21:26:02.154Z,100572.56
2023-05-02T21:28:31.819Z,100570.09
2023-05-02T21:31:04.224Z,100562.38
2023-05-02T21:33:33.864Z,100559.03
2023-05-02T21:36:03.553Z,100560.91
2023-05-02T21:38:33.263Z,100559.38
2023-05-02T21:41:05.035Z,100565.66
2023-05-02T21:43:37.520Z,100564.03
2023-05-02T21:46:09.884Z,100560.66
2023-05-02T21:48:39.870Z,100548.56
2023-05-02T21:51:10.144Z,100551.38
2023-05-02T21:53:40.281Z,100549.84
2023-05-02T21:56:11.136Z,100551.84
2023-05-02T21:58:40.840Z,100543.19
2023-05-02T22:01:13.484Z,100539.03
2023-05-02T22:03:43.253Z,100526.94
2023-05-02T22:06:13.189Z,100526.25
2023-05-02T22:08:42.971Z,100515.03
2023-05-02T22:11:12.643Z,100510.78
2023-05-02T22:13:42.310Z,100509.22
2023-05-02T22:16:14.802Z,100518.09
2023-05-02T22:18:45.434Z,100506.91
2023-05-02T22:21:16.073Z,100494.91
2023-05-02T22:23:45.788Z,100494.94
2023-05-02T22:26:15.536Z,100499.41
2023-05-02T22:28:45.191Z,100493.41
2023-05-02T22:31:18.016Z,100491.75
2023-05-02T22:33:50.064Z,100486.56
2023-05-02T22:36:20.540Z,100479.75
2023-05-02T22:38:50.184Z,100484.28
2023-05-02T22:41:19.813Z,100465.25
2023-05-02T22:43:49.459Z,100453.09
2023-05-02T22:46:21.760Z,100453.22
2023-05-02T22:48:53.616Z,100436.81
2023-05-02T22:51:23.550Z,100430.75
2023-05-02T22:53:54.175Z,100426.50
2023-05-02T22:56:24.641Z,100411.84
2023-05-02T22:58:54.260Z,100407.63
2023-05-02T23:01:26.677Z,100399.00
2023-05-02T23:03:56.704Z,100398.28
2023-05-02T23:06:28.966Z,100386.13
2023-05-02T23:08:58.823Z,100373.22
2023-05-02T23:11:29.294Z,100373.44
2023-05-02T23:13:59.080Z,100363.88
2023-05-02T23:16:31.364Z,100352.63
2023-05-02T23:19:01.112Z,100338.84
2023-05-02T23:21:30.806Z,100343.44
2023-05-02T23:24:00.552Z,100334.72
2023-05-02T23:26:30.648Z,100318.25
2023-05-02T23:29:00.258Z,100321.78
2023-05-02T23:31:32.779Z,100315.00
2023-05-02T23:34:03.094Z,100324.63
2023-05-02T23:36:34.308Z,100315.22
2023-05-02T23:39:05.547Z,100312.69
2023-05-02T23:41:35.593Z,100310.28
2023-05-02T23:44:05.252Z,100284.28
2023-05-02T23:46:37.559Z,100272.16
2023-05-02T23:49:07.319Z,100253.91
2023-05-02T23:51:37.835Z,100254.94
2023-05-02T23:54:07.617Z,100246.31
2023-05-02T23:56:37.295Z,100242.06
2023-05-02T23:59:07.277Z,100240.50
